Base Marambio Centro Met. Antartico, Antarctica
Current Conditions -  °F | °C
As of 10:00 AM on Sunday 25 Jan 2015 (Local Time) from SAWH Reporting Station
Broken Clouds Broken Clouds  
Wind Chill: 36°   Ceiling: 18000
Heat Index: 39°   Visibility: 6mi
Dew Point: 32°   Wind: 5mph
Humidity: 75%   Direction: 360°N
Pressure: 29.71"   Gusts: NA
Location:  64.23°S, 56.72°W
Report Text: SAWH 251000Z 36004KT 9999 SCT045 BKN18004/00 Q1006
Loading
Personal Weather Stations






























Interactive Weather Map New forecast layout! Learn more

10-Day Weather Forecast

Advertisements
Track Severe Weather on mobile